»·PEaware :: N762BB KSEE-KSNA

N762BB :: KSEE-KSNA

FLIGHT INFORMATION

Flight Status: Arrived
Operator: Privately registered:
United States
More flights under this callsign
Pilot: Slade E. (12022)
Aircraft: BEECH AIRCRAFT A90-E90 KING AIR
(BE9L)
More flights by this aircraft type
Origin: KSEE Gillespie
United States
Destination: KSNA John Wayne-Orange Co
United States
More flights between these airports :: More routes between these airports
Route: +OCN V23 SLI
File this flight plan on PilotEdge
Remarks: SANP3
Altitude:
(Current/Filed)
6,000ft
Speed:
(Current/Filed)
215kts
Departed: 24-Oct-20 08:34 AM
Arrived: 24-Oct-20 09:00 AM
Distance/Time
Traveled:
68nm/0:25
Distance/Time
To Go:
Arrived

Flight Plot

Page will automatically refresh every two minutes.


Map Options




Map Legend


Flown Route
Filed Route
Departure Airport
Arrival Airport
Navaid (VOR, NDB)
Fix

Horizontal Profiles

Position Reports

Time Latitude Longitude Heading Altitude Ground
Speed
24-Oct-20 08:24 32.826819 -116.979204 101 371ft 0kts
24-Oct-20 08:25 32.826819 -116.979204 101 371ft 0kts
24-Oct-20 08:26 32.826819 -116.979204 101 371ft 0kts
24-Oct-20 08:27 32.826819 -116.979204 101 371ft 0kts
24-Oct-20 08:28 32.827065 -116.977953 98 371ft 14kts
24-Oct-20 08:29 32.826059 -116.972197 101 371ft 18kts
24-Oct-20 08:30 32.824938 -116.966001 102 371ft 20kts
24-Oct-20 08:31 32.824750 -116.964956 100 371ft 0kts
24-Oct-20 08:32 32.826448 -116.964624 275 371ft 11kts
24-Oct-20 08:33 32.831521 -116.990288 295 706ft 126kts
24-Oct-20 08:34 32.862816 -117.003885 353 1877ft 134kts
24-Oct-20 08:35 32.893260 -117.028932 317 2933ft 143kts
24-Oct-20 08:36 32.922163 -117.059977 318 3963ft 144kts
24-Oct-20 08:37 32.952766 -117.093394 317 4888ft 157kts
24-Oct-20 08:38 32.984143 -117.128358 315 5904ft 161kts
24-Oct-20 08:39 33.019445 -117.166006 321 6026ft 201kts
24-Oct-20 08:40 33.057062 -117.210653 314 6017ft 216kts
24-Oct-20 08:41 33.101972 -117.262052 316 6012ft 217kts
24-Oct-20 08:42 33.141088 -117.305965 316 6011ft 215kts
24-Oct-20 08:43 33.184605 -117.354741 316 6011ft 215kts
24-Oct-20 08:44 33.225170 -117.400329 317 6009ft 204kts
24-Oct-20 08:45 33.261157 -117.441557 316 6010ft 200kts
24-Oct-20 08:46 33.303357 -117.490556 315 6013ft 208kts
24-Oct-20 08:47 33.344370 -117.538531 315 6012ft 209kts
24-Oct-20 08:48 33.382749 -117.583491 314 6012ft 209kts
24-Oct-20 08:49 33.422294 -117.632265 314 6009ft 201kts
24-Oct-20 08:50 33.462439 -117.662046 331 5516ft 203kts
24-Oct-20 08:51 33.503473 -117.687266 331 4698ft 202kts
24-Oct-20 08:52 33.558513 -117.720927 332 4002ft 179kts
24-Oct-20 08:53 33.596461 -117.744053 332 4015ft 141kts
24-Oct-20 08:54 33.632091 -117.761831 333 3063ft 135kts
24-Oct-20 08:55 33.657702 -117.786743 299 2191ft 117kts
24-Oct-20 08:56 33.671507 -117.818555 296 1634ft 102kts
24-Oct-20 08:57 33.686149 -117.844652 305 854ft 86kts
24-Oct-20 08:58 33.677600 -117.867637 206 59ft 45kts
24-Oct-20 08:59 33.669995 -117.872159 167 59ft 27kts
24-Oct-20 09:00 33.669142 -117.871009 58 59ft 9kts
24-Oct-20 09:01 33.671275 -117.867806 22 59ft 0kts
24-Oct-20 09:02 33.671276 -117.867806 22 59ft 0kts
24-Oct-20 09:03 33.671276 -117.867806 22 59ft 0kts
24-Oct-20 09:04 33.671276 -117.867806 22 59ft 0kts
24-Oct-20 09:05 33.671276 -117.867806 22 59ft 0kts
24-Oct-20 09:06 33.671276 -117.867806 22 59ft 0kts
24-Oct-20 09:07 33.671276 -117.867806 22 59ft 0kts
24-Oct-20 09:08 33.671276 -117.867806 22 59ft 0kts
24-Oct-20 09:09 33.671276 -117.867806 22 59ft 0kts
24-Oct-20 09:10 33.671276 -117.867806 22 59ft 0kts
24-Oct-20 09:11 33.671276 -117.867806 22 59ft 0kts
24-Oct-20 09:12 33.671276 -117.867806 22 59ft 0kts
24-Oct-20 09:13 33.671276 -117.867806 22 59ft 0kts

Navigation Log

Ident Type
Flight plan parsing failed, navigation log unavailable